Time;durP1;ratioP1;P1;durP2;ratioP2;P2;SDS_P1;SDS_P2;PMS_P1;PMS_P2;Temp;Humidity;BMP_temperature;BMP_pressure;BME280_temperature;BME280_humidity;BME280_pressure;Samples;Min_cycle;Max_cycle;Signal;HPM_P1;HPM_P2
2023/09/14 00:00:04;;;;;;;0.40;0.40;;;;;;;;;;1034555;28;20033;-22
2023/09/14 00:00:34;;;;;;;0.93;0.60;;;;;;;;;;1035552;28;20021;-22
2023/09/14 00:01:05;;;;;;;4.47;1.45;;;;;;;;;;1035785;28;20021;-21
2023/09/14 00:01:35;;;;;;;2.15;1.83;;;;;;;;;;1035814;28;20018;-21
2023/09/14 00:02:06;;;;;;;1.13;0.77;;;;;;;;;;1035452;28;20085;-22
2023/09/14 00:02:36;;;;;;;6.35;1.48;;;;;;;;;;1035772;28;20028;-22
2023/09/14 00:03:07;;;;;;;0.70;0.50;;;;;;;;;;1031071;28;20488;-22
2023/09/14 00:03:37;;;;;;;1.75;1.55;;;;;;;;;;1031236;28;20108;-23
2023/09/14 00:04:07;;;;;;;2.03;1.35;;;;;;;;;;1030911;28;20088;-22
2023/09/14 00:04:38;;;;;;;5.82;0.60;;;;;;;;;;1031554;28;20026;-21
2023/09/14 00:05:09;;;;;;;0.88;0.88;;;;;;;;;;1035910;28;20388;-21
2023/09/14 00:05:42;;;;;;;0.95;0.95;;;;;;;;;;1035694;28;20496;-20
2023/09/14 00:06:13;;;;;;;3.45;1.98;;;;;;;;;;1035416;28;20037;-20
2023/09/14 00:06:43;;;;;;;2.65;1.73;;;;;;;;;;1035801;28;20022;-20
2023/09/14 00:07:13;;;;;;;5.95;1.23;;;;;;;;;;1035779;28;20025;-21
2023/09/14 00:07:44;;;;;;;0.75;0.70;;;;;;;;;;1035475;28;20022;-21
2023/09/14 00:08:15;;;;;;;0.52;0.52;;;;;;;;;;1035489;28;20022;-22
2023/09/14 00:08:45;;;;;;;4.38;1.02;;;;;;;;;;1035935;28;20014;-22
2023/09/14 00:09:16;;;;;;;3.13;1.48;;;;;;;;;;1034465;28;20116;-21
2023/09/14 00:09:46;;;;;;;0.40;0.40;;;;;;;;;;1035440;28;20047;-21
2023/09/14 00:10:16;;;;;;;2.42;1.50;;;;;;;;;;1034933;28;20026;-21
2023/09/14 00:10:52;;;;;;;1.40;1.17;;;;;;;;;;1035853;28;20021;-21
2023/09/14 00:11:23;;;;;;;0.68;0.68;;;;;;;;;;1034988;28;20029;-21
2023/09/14 00:11:53;;;;;;;0.93;0.90;;;;;;;;;;1034906;28;20112;-22
2023/09/14 00:12:24;;;;;;;1.65;1.55;;;;;;;;;;1035610;28;20029;-22
2023/09/14 00:12:55;;;;;;;2.25;2.05;;;;;;;;;;1035809;28;20031;-21
2023/09/14 00:13:26;;;;;;;0.63;0.52;;;;;;;;;;1035783;28;20481;-20
2023/09/14 00:13:56;;;;;;;0.40;0.40;;;;;;;;;;1035703;28;20017;-22
2023/09/14 00:14:27;;;;;;;0.55;0.55;;;;;;;;;;1035588;28;20029;-22
2023/09/14 00:14:58;;;;;;;1.77;1.58;;;;;;;;;;1035211;28;20049;-21
2023/09/14 00:15:28;;;;;;;2.50;2.30;;;;;;;;;;1035706;28;20469;-20
2023/09/14 00:15:59;;;;;;;3.92;1.45;;;;;;;;;;1035468;28;20567;-21
2023/09/14 00:16:29;;;;;;;1.23;1.13;;;;;;;;;;1034854;28;20485;-20
2023/09/14 00:17:00;;;;;;;5.25;2.92;;;;;;;;;;1035456;28;20022;-21
2023/09/14 00:17:31;;;;;;;3.30;1.48;;;;;;;;;;1035488;28;20460;-20
2023/09/14 00:18:02;;;;;;;0.35;0.35;;;;;;;;;;1035254;28;20060;-21
2023/09/14 00:18:32;;;;;;;0.75;0.65;;;;;;;;;;1035601;28;20037;-21
2023/09/14 00:19:03;;;;;;;2.63;1.23;;;;;;;;;;1035844;28;20047;-21
2023/09/14 00:19:33;;;;;;;1.67;1.33;;;;;;;;;;1035802;28;20032;-22
2023/09/14 00:20:06;;;;;;;1.95;1.85;;;;;;;;;;1035040;28;20370;-21
2023/09/14 00:20:37;;;;;;;15.00;0.90;;;;;;;;;;1035511;28;20037;-20
2023/09/14 00:21:07;;;;;;;13.82;1.50;;;;;;;;;;1035311;28;20018;-22
2023/09/14 00:21:39;;;;;;;1.45;0.60;;;;;;;;;;1035510;28;20036;-21
2023/09/14 00:22:09;;;;;;;1.15;0.80;;;;;;;;;;1035069;28;20025;-21
2023/09/14 00:22:40;;;;;;;2.85;2.05;;;;;;;;;;1035448;28;20018;-21
2023/09/14 00:23:10;;;;;;;5.88;1.50;;;;;;;;;;1035791;28;20033;-22
2023/09/14 00:23:41;;;;;;;1.88;1.77;;;;;;;;;;1031289;28;20026;-21
2023/09/14 00:24:11;;;;;;;3.38;1.65;;;;;;;;;;1030990;28;20037;-21
2023/09/14 00:24:42;;;;;;;2.30;1.30;;;;;;;;;;1031518;28;20078;-21
2023/09/14 00:25:12;;;;;;;1.38;1.20;;;;;;;;;;1027101;28;20121;-21
2023/09/14 00:25:43;;;;;;;17.23;1.50;;;;;;;;;;1031445;28;20026;-21
2023/09/14 00:26:15;;;;;;;3.13;1.85;;;;;;;;;;1031098;28;20092;-21
2023/09/14 00:26:45;;;;;;;3.20;2.63;;;;;;;;;;1031660;28;20027;-21
2023/09/14 00:27:16;;;;;;;2.85;1.95;;;;;;;;;;1035404;28;20017;-21
2023/09/14 00:27:47;;;;;;;0.88;0.45;;;;;;;;;;1035505;28;20464;-22
2023/09/14 00:28:18;;;;;;;1.30;1.23;;;;;;;;;;1034851;28;20377;-21
2023/09/14 00:28:48;;;;;;;23.60;1.40;;;;;;;;;;1035640;28;20029;-21
2023/09/14 00:29:19;;;;;;;0.52;0.40;;;;;;;;;;1035402;28;20049;-21
2023/09/14 00:29:49;;;;;;;2.10;1.90;;;;;;;;;;1035597;28;20030;-21
2023/09/14 00:30:20;;;;;;;2.72;1.63;;;;;;;;;;1034479;28;20033;-22
2023/09/14 00:30:52;;;;;;;2.03;1.73;;;;;;;;;;1035632;28;20021;-22
2023/09/14 00:31:22;;;;;;;0.80;0.80;;;;;;;;;;1035253;28;20425;-22
2023/09/14 00:31:53;;;;;;;0.80;0.80;;;;;;;;;;1035298;28;20104;-22
2023/09/14 00:32:23;;;;;;;1.67;1.27;;;;;;;;;;1035517;28;20553;-21
2023/09/14 00:32:54;;;;;;;4.78;3.30;;;;;;;;;;1035504;28;20032;-22
2023/09/14 00:33:24;;;;;;;1.08;0.98;;;;;;;;;;1035430;28;20392;-22
2023/09/14 00:33:56;;;;;;;1.80;1.70;;;;;;;;;;1035334;28;20558;-21
2023/09/14 00:34:27;;;;;;;0.38;0.35;;;;;;;;;;1035097;28;20025;-21
2023/09/14 00:34:57;;;;;;;6.45;1.45;;;;;;;;;;1035783;28;20071;-21
2023/09/14 00:35:28;;;;;;;0.90;0.90;;;;;;;;;;1035563;28;20025;-21
2023/09/14 00:35:58;;;;;;;0.30;0.30;;;;;;;;;;1035519;28;20025;-21
2023/09/14 00:36:30;;;;;;;0.88;0.88;;;;;;;;;;1035570;28;20033;-21
2023/09/14 00:37:00;;;;;;;1.88;1.50;;;;;;;;;;1035666;28;20045;-22
2023/09/14 00:37:31;;;;;;;16.05;2.20;;;;;;;;;;1035691;28;20404;-21
2023/09/14 00:38:01;;;;;;;1.58;1.48;;;;;;;;;;1034708;28;20045;-21
2023/09/14 00:38:32;;;;;;;0.65;0.50;;;;;;;;;;1035657;28;20026;-23
2023/09/14 00:39:03;;;;;;;0.20;0.20;;;;;;;;;;1030024;28;20026;-22
2023/09/14 00:39:33;;;;;;;3.70;0.82;;;;;;;;;;1031254;28;20023;-20
2023/09/14 00:40:07;;;;;;;1.42;1.33;;;;;;;;;;1030538;28;20089;-21
2023/09/14 00:40:38;;;;;;;4.47;2.75;;;;;;;;;;1032006;28;20026;-21
2023/09/14 00:41:08;;;;;;;1.63;0.95;;;;;;;;;;1035645;28;20576;-21
2023/09/14 00:41:39;;;;;;;0.90;0.88;;;;;;;;;;1035485;28;20588;-21
2023/09/14 00:42:09;;;;;;;3.20;1.73;;;;;;;;;;1033759;28;20029;-21
2023/09/14 00:42:41;;;;;;;3.65;1.77;;;;;;;;;;1035651;28;20810;-20
2023/09/14 00:43:13;;;;;;;1.40;1.30;;;;;;;;;;1035412;28;20022;-21
2023/09/14 00:43:44;;;;;;;4.32;1.88;;;;;;;;;;1035653;28;20029;-21
2023/09/14 00:44:15;;;;;;;1.98;1.27;;;;;;;;;;1034882;28;20033;-21
2023/09/14 00:44:45;;;;;;;1.23;1.13;;;;;;;;;;1035707;28;20041;-22
2023/09/14 00:45:17;;;;;;;2.65;1.40;;;;;;;;;;1035279;28;20030;-22
2023/09/14 00:45:47;;;;;;;0.85;0.77;;;;;;;;;;1035459;28;20013;-21
2023/09/14 00:46:18;;;;;;;2.33;2.15;;;;;;;;;;1034733;28;20105;-21
2023/09/14 00:46:48;;;;;;;0.77;0.77;;;;;;;;;;1035597;28;20026;-22
2023/09/14 00:47:19;;;;;;;3.05;0.52;;;;;;;;;;1035838;28;20514;-20
2023/09/14 00:47:50;;;;;;;1.33;1.23;;;;;;;;;;1035525;28;20065;-21
2023/09/14 00:48:21;;;;;;;2.53;1.92;;;;;;;;;;1035364;28;20057;-22
2023/09/14 00:48:52;;;;;;;1.95;1.67;;;;;;;;;;1035678;28;20028;-21
2023/09/14 00:49:22;;;;;;;2.95;2.22;;;;;;;;;;1035430;28;20399;-21
2023/09/14 00:49:53;;;;;;;2.95;0.47;;;;;;;;;;1035550;28;20385;-21
2023/09/14 00:50:24;;;;;;;2.22;0.75;;;;;;;;;;1035347;28;20032;-21
2023/09/14 00:50:55;;;;;;;3.53;3.22;;;;;;;;;;1035353;28;20025;-21
2023/09/14 00:51:27;;;;;;;1.30;0.98;;;;;;;;;;1030995;28;20612;-21
2023/09/14 00:51:58;;;;;;;1.60;1.42;;;;;;;;;;1030941;28;20082;-22
2023/09/14 00:52:28;;;;;;;3.10;0.93;;;;;;;;;;1031230;28;20026;-21
2023/09/14 00:53:02;;;;;;;0.47;0.47;;;;;;;;;;1031490;28;20463;-21
2023/09/14 00:53:33;;;;;;;1.38;1.27;;;;;;;;;;1035519;28;20120;-21
2023/09/14 00:54:04;;;;;;;0.52;0.43;;;;;;;;;;1035448;28;20038;-21
2023/09/14 00:54:34;;;;;;;0.90;0.38;;;;;;;;;;1032153;28;20091;-21
2023/09/14 00:55:06;;;;;;;0.50;0.50;;;;;;;;;;1035491;28;20022;-21
2023/09/14 00:55:37;;;;;;;2.40;1.85;;;;;;;;;;1035554;28;20057;-22
2023/09/14 00:56:09;;;;;;;4.32;1.98;;;;;;;;;;1035348;28;20092;-22
2023/09/14 00:56:39;;;;;;;0.30;0.30;;;;;;;;;;1035928;28;20838;-21
2023/09/14 00:57:09;;;;;;;1.65;1.55;;;;;;;;;;1035192;28;20050;-22
2023/09/14 00:57:40;;;;;;;2.97;2.33;;;;;;;;;;1035292;28;20539;-21
2023/09/14 00:58:15;;;;;;;1.13;0.93;;;;;;;;;;1034844;28;20417;-21
2023/09/14 00:58:47;;;;;;;5.75;5.25;;;;;;;;;;1035627;28;20056;-21
2023/09/14 00:59:17;;;;;;;1.10;0.98;;;;;;;;;;1034658;28;20056;-22
2023/09/14 00:59:48;;;;;;;1.27;1.13;;;;;;;;;;1035090;28;20018;-21
2023/09/14 01:00:19;;;;;;;3.58;1.15;;;;;;;;;;1030466;28;20394;-21
2023/09/14 01:00:49;;;;;;;2.10;0.98;;;;;;;;;;1031196;28;20026;-21
2023/09/14 01:01:20;;;;;;;0.70;0.70;;;;;;;;;;1028217;28;20038;-21
2023/09/14 01:01:50;;;;;;;1.98;1.70;;;;;;;;;;1029606;28;20540;-21
2023/09/14 01:02:21;;;;;;;1.25;1.02;;;;;;;;;;1030557;28;20483;-22
2023/09/14 01:02:52;;;;;;;2.28;1.38;;;;;;;;;;1031247;28;20030;-23
2023/09/14 01:03:23;;;;;;;1.20;1.13;;;;;;;;;;1035095;28;20025;-21
2023/09/14 01:03:54;;;;;;;0.28;0.28;;;;;;;;;;1035345;28;20061;-21
2023/09/14 01:04:29;;;;;;;1.65;1.55;;;;;;;;;;1035009;28;20030;-21
2023/09/14 01:05:05;;;;;;;19.83;1.33;;;;;;;;;;1033911;28;20462;-22
2023/09/14 01:05:36;;;;;;;4.03;1.05;;;;;;;;;;1034209;28;20400;-21
2023/09/14 01:06:07;;;;;;;4.20;2.65;;;;;;;;;;1033427;28;20026;-21
2023/09/14 01:06:37;;;;;;;0.50;0.50;;;;;;;;;;1034485;28;20022;-21
2023/09/14 01:07:09;;;;;;;1.85;1.75;;;;;;;;;;1035363;28;20030;-21
2023/09/14 01:07:40;;;;;;;0.90;0.90;;;;;;;;;;1034986;28;20564;-22
2023/09/14 01:08:11;;;;;;;1.30;1.20;;;;;;;;;;1034259;28;20060;-18
2023/09/14 01:08:42;;;;;;;1.38;0.88;;;;;;;;;;1035214;28;20037;-21
2023/09/14 01:09:12;;;;;;;0.40;0.40;;;;;;;;;;1034871;28;20440;-21
2023/09/14 01:09:43;;;;;;;3.25;1.75;;;;;;;;;;1035065;28;20025;-21
2023/09/14 01:10:15;;;;;;;2.38;2.15;;;;;;;;;;1034598;28;20076;-21
2023/09/14 01:10:46;;;;;;;1.25;1.13;;;;;;;;;;1034395;28;20478;-21
2023/09/14 01:11:16;;;;;;;0.35;0.35;;;;;;;;;;1035214;28;20113;-21
2023/09/14 01:11:47;;;;;;;1.25;1.20;;;;;;;;;;1035156;28;20076;-21
2023/09/14 01:12:18;;;;;;;7.72;3.05;;;;;;;;;;1035107;28;20034;-20
2023/09/14 01:12:49;;;;;;;2.60;1.58;;;;;;;;;;1034874;28;20044;-20
2023/09/14 01:13:29;;;;;;;1.17;1.08;;;;;;;;;;1035294;28;20503;-21
2023/09/14 01:14:08;;;;;;;1.40;0.82;;;;;;;;;;1030429;28;20050;-21
2023/09/14 01:14:44;;;;;;;3.60;1.45;;;;;;;;;;1030497;28;20057;-22
2023/09/14 01:15:19;;;;;;;1.50;1.13;;;;;;;;;;1028563;28;20640;-21
2023/09/14 01:15:55;;;;;;;2.90;1.23;;;;;;;;;;1032032;28;20428;-21
2023/09/14 01:16:32;;;;;;;2.03;0.77;;;;;;;;;;1034470;28;20029;-22
2023/09/14 01:17:08;;;;;;;3.60;2.33;;;;;;;;;;1034267;28;20044;-21
2023/09/14 01:17:44;;;;;;;10.02;1.67;;;;;;;;;;1034047;28;20044;-20
2023/09/14 01:18:18;;;;;;;4.82;2.10;;;;;;;;;;1034510;28;20038;-21
2023/09/14 01:19:12;;;;;;;4.90;3.83;;;;;;;;;;1035046;28;20329;-21
2023/09/14 01:20:11;;;;;;;1.98;1.65;;;;;;;;;;1026587;28;20459;-20
2023/09/14 01:21:00;;;;;;;0.98;0.95;;;;;;;;;;1022734;29;20023;-21
2023/09/14 01:21:31;;;;;;;1.27;1.20;;;;;;;;;;1031292;28;20575;-20
2023/09/14 01:22:20;;;;;;;2.05;1.40;;;;;;;;;;1026692;28;20027;-20
2023/09/14 01:23:03;;;;;;;2.83;1.75;;;;;;;;;;1025314;28;20030;-21
2023/09/14 01:23:40;;;;;;;1.48;1.35;;;;;;;;;;1028400;28;20026;-21
2023/09/14 01:24:10;;;;;;;14.60;1.50;;;;;;;;;;1029421;28;20113;-21
2023/09/14 01:24:54;;;;;;;18.17;3.10;;;;;;;;;;1030000;28;20038;-21
2023/09/14 01:25:36;;;;;;;4.18;1.60;;;;;;;;;;1026535;28;20037;-20
2023/09/14 01:26:18;;;;;;;0.60;0.60;;;;;;;;;;1029754;28;20050;-22
2023/09/14 01:26:51;;;;;;;1.50;1.42;;;;;;;;;;1026925;28;20081;-23
2023/09/14 01:27:23;;;;;;;1.35;1.25;;;;;;;;;;1029153;28;20042;-21
2023/09/14 01:28:06;;;;;;;2.58;2.33;;;;;;;;;;1026150;28;20026;-22
2023/09/14 01:28:37;;;;;;;0.63;0.63;;;;;;;;;;1027466;28;20066;-20
2023/09/14 01:29:08;;;;;;;10.52;2.28;;;;;;;;;;1027973;28;20137;-20
2023/09/14 01:29:41;;;;;;;3.85;3.42;;;;;;;;;;1029470;28;20033;-20
2023/09/14 01:30:12;;;;;;;1.95;1.23;;;;;;;;;;1027032;28;20509;-21
2023/09/14 01:30:43;;;;;;;0.75;0.75;;;;;;;;;;1028623;28;20033;-21
2023/09/14 01:31:13;;;;;;;0.45;0.45;;;;;;;;;;1028043;28;20079;-22
2023/09/14 01:31:44;;;;;;;2.72;1.85;;;;;;;;;;1026779;28;20022;-22
2023/09/14 01:32:15;;;;;;;1.20;1.15;;;;;;;;;;1028580;28;20039;-21
2023/09/14 01:32:45;;;;;;;1.25;1.10;;;;;;;;;;1030587;28;20023;-21
2023/09/14 01:33:17;;;;;;;1.42;1.33;;;;;;;;;;1029633;28;20037;-20
2023/09/14 01:33:50;;;;;;;0.17;0.17;;;;;;;;;;1034628;28;20506;-21
2023/09/14 01:34:23;;;;;;;1.40;1.02;;;;;;;;;;1028444;28;20588;-20
2023/09/14 01:34:54;;;;;;;1.08;1.08;;;;;;;;;;1030755;28;20032;-21
2023/09/14 01:35:26;;;;;;;1.95;0.75;;;;;;;;;;1029049;28;20476;-20
2023/09/14 01:35:56;;;;;;;2.58;1.17;;;;;;;;;;1027677;28;20406;-22
2023/09/14 01:36:32;;;;;;;7.38;1.20;;;;;;;;;;1032782;28;20029;-21
2023/09/14 01:37:05;;;;;;;0.20;0.20;;;;;;;;;;1034346;28;20022;-22
2023/09/14 01:37:37;;;;;;;0.25;0.25;;;;;;;;;;1033010;28;20116;-23
2023/09/14 01:38:09;;;;;;;5.63;1.88;;;;;;;;;;1032795;28;20033;-20
2023/09/14 01:38:40;;;;;;;1.45;0.93;;;;;;;;;;1029666;28;20120;-21
2023/09/14 01:39:12;;;;;;;2.00;1.33;;;;;;;;;;1027478;28;20037;-21
2023/09/14 01:39:43;;;;;;;0.20;0.20;;;;;;;;;;1028412;28;20026;-21
2023/09/14 01:40:13;;;;;;;0.85;0.80;;;;;;;;;;1027882;28;20023;-21
2023/09/14 01:40:48;;;;;;;1.08;0.98;;;;;;;;;;1032678;28;20033;-20
2023/09/14 01:41:21;;;;;;;0.10;0.10;;;;;;;;;;1028577;28;20401;-20
2023/09/14 01:41:54;;;;;;;0.57;0.57;;;;;;;;;;1030298;28;20034;-20
2023/09/14 01:42:25;;;;;;;2.67;1.23;;;;;;;;;;1030218;28;20027;-20
2023/09/14 01:42:57;;;;;;;8.00;1.67;;;;;;;;;;1030576;28;20031;-20
2023/09/14 01:43:28;;;;;;;1.70;0.98;;;;;;;;;;1034935;28;20030;-20
2023/09/14 01:43:59;;;;;;;4.85;1.83;;;;;;;;;;1034946;28;20038;-21
2023/09/14 01:44:30;;;;;;;0.85;0.85;;;;;;;;;;1034478;28;20937;-21
2023/09/14 01:45:01;;;;;;;5.88;2.53;;;;;;;;;;1033923;28;20517;-20
2023/09/14 01:45:34;;;;;;;1.77;1.20;;;;;;;;;;1034221;28;20025;-21
2023/09/14 01:46:06;;;;;;;8.25;2.80;;;;;;;;;;1031188;28;20602;-21
2023/09/14 01:46:36;;;;;;;0.38;0.38;;;;;;;;;;1026247;28;20034;-21
2023/09/14 01:47:08;;;;;;;0.55;0.50;;;;;;;;;;1027362;28;20031;-19
2023/09/14 01:47:38;;;;;;;0.80;0.40;;;;;;;;;;1026676;28;20078;-21
2023/09/14 01:48:14;;;;;;;1.02;0.93;;;;;;;;;;1029938;28;20030;-21
2023/09/14 01:48:45;;;;;;;0.55;0.55;;;;;;;;;;1034283;28;20025;-20
2023/09/14 01:49:16;;;;;;;0.40;0.40;;;;;;;;;;1034647;28;20505;-21
2023/09/14 01:49:46;;;;;;;0.20;0.20;;;;;;;;;;1034884;28;20030;-21
2023/09/14 01:50:17;;;;;;;1.08;0.65;;;;;;;;;;1035092;28;20398;-22
2023/09/14 01:50:47;;;;;;;1.23;1.10;;;;;;;;;;1035567;28;20030;-21
2023/09/14 01:51:18;;;;;;;0.30;0.30;;;;;;;;;;1035422;28;20072;-22
2023/09/14 01:51:48;;;;;;;0.22;0.22;;;;;;;;;;1035579;28;20076;-22
2023/09/14 01:52:19;;;;;;;1.35;0.63;;;;;;;;;;1035637;28;20022;-21
2023/09/14 01:52:50;;;;;;;0.45;0.45;;;;;;;;;;1034609;28;20034;-22
2023/09/14 01:53:20;;;;;;;0.55;0.55;;;;;;;;;;1036111;28;20018;-21
2023/09/14 01:53:51;;;;;;;1.17;0.90;;;;;;;;;;1035956;28;20025;-21
2023/09/14 01:54:23;;;;;;;0.57;0.57;;;;;;;;;;1031462;28;20406;-20
2023/09/14 01:54:53;;;;;;;0.65;0.65;;;;;;;;;;1031109;28;20120;-23
2023/09/14 01:55:24;;;;;;;0.10;0.10;;;;;;;;;;1031299;28;20029;-22
2023/09/14 01:55:54;;;;;;;5.25;3.75;;;;;;;;;;1031112;28;20030;-21
2023/09/14 01:56:25;;;;;;;3.30;1.83;;;;;;;;;;1031128;28;20026;-21
2023/09/14 01:56:55;;;;;;;0.32;0.30;;;;;;;;;;1030528;28;20461;-21
2023/09/14 01:57:25;;;;;;;0.75;0.57;;;;;;;;;;1030111;28;20048;-22
2023/09/14 01:57:56;;;;;;;1.33;1.23;;;;;;;;;;1030315;28;20426;-23
2023/09/14 01:58:26;;;;;;;0.90;0.85;;;;;;;;;;1035503;28;20111;-21
2023/09/14 01:58:57;;;;;;;0.90;0.88;;;;;;;;;;1035121;28;20034;-23
2023/09/14 01:59:27;;;;;;;0.20;0.20;;;;;;;;;;1035481;28;20524;-20
2023/09/14 01:59:58;;;;;;;5.72;1.70;;;;;;;;;;1033648;28;20026;-22
2023/09/14 02:00:30;;;;;;;0.85;0.77;;;;;;;;;;1032841;28;20026;-23
2023/09/14 02:01:00;;;;;;;1.70;1.40;;;;;;;;;;1031918;28;20087;-22
2023/09/14 02:01:31;;;;;;;1.75;1.65;;;;;;;;;;1035951;28;20420;-21
2023/09/14 02:02:01;;;;;;;0.17;0.17;;;;;;;;;;1034927;28;20886;-21
2023/09/14 02:02:32;;;;;;;0.70;0.70;;;;;;;;;;1035882;28;20087;-21
2023/09/14 02:03:02;;;;;;;2.28;0.65;;;;;;;;;;1034602;28;20033;-21
2023/09/14 02:03:34;;;;;;;0.95;0.90;;;;;;;;;;1030804;28;20030;-21
2023/09/14 02:04:05;;;;;;;1.55;1.35;;;;;;;;;;1026838;28;20034;-20
2023/09/14 02:04:35;;;;;;;3.92;3.63;;;;;;;;;;1026782;28;20027;-22
2023/09/14 02:05:06;;;;;;;0.88;0.85;;;;;;;;;;1027262;28;20174;-22
2023/09/14 02:05:36;;;;;;;0.25;0.25;;;;;;;;;;1031573;28;20188;-20
2023/09/14 02:06:07;;;;;;;0.17;0.17;;;;;;;;;;1030796;28;20030;-20
2023/09/14 02:06:38;;;;;;;0.43;0.43;;;;;;;;;;1030782;28;20027;-19
2023/09/14 02:07:08;;;;;;;1.48;1.30;;;;;;;;;;1030162;28;20588;-20
2023/09/14 02:07:39;;;;;;;0.52;0.45;;;;;;;;;;1030501;28;20109;-22
2023/09/14 02:08:09;;;;;;;1.55;0.90;;;;;;;;;;1034120;28;20108;-22
2023/09/14 02:08:39;;;;;;;1.25;1.00;;;;;;;;;;1036097;28;20033;-20
2023/09/14 02:09:10;;;;;;;1.27;1.17;;;;;;;;;;1031033;28;20072;-19
2023/09/14 02:09:41;;;;;;;3.03;1.77;;;;;;;;;;1032167;28;20433;-21
2023/09/14 02:10:11;;;;;;;2.72;2.53;;;;;;;;;;1026418;28;20505;-21
2023/09/14 02:10:41;;;;;;;0.13;0.13;;;;;;;;;;1029759;28;20022;-20
2023/09/14 02:11:13;;;;;;;1.00;1.00;;;;;;;;;;1031743;28;20056;-21
2023/09/14 02:11:43;;;;;;;2.40;1.10;;;;;;;;;;1033998;28;20558;-20
2023/09/14 02:12:16;;;;;;;0.75;0.75;;;;;;;;;;1033922;28;20036;-20
2023/09/14 02:12:48;;;;;;;2.50;1.55;;;;;;;;;;1034711;28;20025;-22
2023/09/14 02:13:18;;;;;;;0.60;0.60;;;;;;;;;;1034260;28;20033;-20
2023/09/14 02:13:49;;;;;;;0.50;0.50;;;;;;;;;;1034178;28;20148;-20
2023/09/14 02:14:19;;;;;;;0.55;0.55;;;;;;;;;;1034384;28;20260;-20
2023/09/14 02:14:50;;;;;;;2.53;2.30;;;;;;;;;;1033468;28;20037;-20
2023/09/14 02:15:21;;;;;;;4.07;0.52;;;;;;;;;;1034385;28;20505;-20
2023/09/14 02:15:51;;;;;;;0.40;0.40;;;;;;;;;;1033509;28;20045;-21
2023/09/14 02:16:22;;;;;;;0.40;0.40;;;;;;;;;;1034167;28;20124;-20
2023/09/14 02:16:54;;;;;;;1.08;1.05;;;;;;;;;;1033258;28;20931;-21
2023/09/14 02:17:25;;;;;;;1.80;1.27;;;;;;;;;;1032999;28;20028;-22
2023/09/14 02:17:56;;;;;;;0.45;0.45;;;;;;;;;;1030430;28;20561;-23
2023/09/14 02:18:26;;;;;;;2.28;1.67;;;;;;;;;;1029217;28;20137;-21
2023/09/14 02:18:57;;;;;;;0.82;0.70;;;;;;;;;;1028483;28;20080;-21
2023/09/14 02:19:27;;;;;;;0.22;0.20;;;;;;;;;;1029204;28;20030;-21
2023/09/14 02:19:58;;;;;;;0.10;0.10;;;;;;;;;;1032250;28;20030;-20
2023/09/14 02:20:28;;;;;;;1.77;1.35;;;;;;;;;;1034229;28;20022;-21
2023/09/14 02:20:59;;;;;;;1.55;1.45;;;;;;;;;;1033239;28;20179;-19
2023/09/14 02:21:29;;;;;;;0.08;0.08;;;;;;;;;;1027475;28;20029;-21
2023/09/14 02:22:00;;;;;;;1.52;1.35;;;;;;;;;;1027924;28;20481;-19
2023/09/14 02:22:30;;;;;;;0.90;0.90;;;;;;;;;;1030975;28;20414;-22
2023/09/14 02:23:04;;;;;;;2.55;1.23;;;;;;;;;;1030868;28;20030;-22
2023/09/14 02:23:34;;;;;;;2.85;1.38;;;;;;;;;;1033214;28;20034;-22
2023/09/14 02:24:05;;;;;;;2.13;1.95;;;;;;;;;;1033375;28;20064;-21
2023/09/14 02:24:35;;;;;;;1.13;1.13;;;;;;;;;;1033908;28;20053;-21
2023/09/14 02:25:06;;;;;;;2.28;0.93;;;;;;;;;;1031710;28;20068;-22
2023/09/14 02:25:36;;;;;;;0.73;0.73;;;;;;;;;;1033049;28;22032;-22
2023/09/14 02:26:07;;;;;;;0.52;0.45;;;;;;;;;;1028010;28;20030;-22
2023/09/14 02:26:38;;;;;;;0.40;0.40;;;;;;;;;;1029656;28;20056;-20
2023/09/14 02:27:08;;;;;;;1.80;1.40;;;;;;;;;;1029274;28;20469;-20
2023/09/14 02:27:39;;;;;;;0.13;0.13;;;;;;;;;;1029788;28;20128;-21
2023/09/14 02:28:09;;;;;;;1.75;1.65;;;;;;;;;;1034393;28;20022;-21
2023/09/14 02:28:40;;;;;;;0.65;0.38;;;;;;;;;;1033716;28;20044;-22
2023/09/14 02:29:11;;;;;;;0.52;0.52;;;;;;;;;;1035411;28;20599;-20
2023/09/14 02:29:42;;;;;;;0.35;0.35;;;;;;;;;;1028383;28;20041;-20
2023/09/14 02:30:12;;;;;;;12.80;2.33;;;;;;;;;;1022603;28;20027;-21
2023/09/14 02:30:43;;;;;;;3.03;2.40;;;;;;;;;;1025911;28;20500;-21
2023/09/14 02:31:13;;;;;;;3.63;2.17;;;;;;;;;;1024866;28;20035;-22
2023/09/14 02:31:44;;;;;;;1.98;1.83;;;;;;;;;;1029627;28;20026;-20
2023/09/14 02:32:14;;;;;;;0.75;0.75;;;;;;;;;;1032752;28;20029;-22
2023/09/14 02:32:45;;;;;;;5.50;0.52;;;;;;;;;;1032637;28;20208;-22
2023/09/14 02:33:15;;;;;;;0.38;0.38;;;;;;;;;;1033293;28;20030;-21
2023/09/14 02:33:46;;;;;;;0.57;0.57;;;;;;;;;;1034260;28;20079;-21
2023/09/14 02:34:16;;;;;;;0.25;0.25;;;;;;;;;;1033692;28;20030;-21
2023/09/14 02:34:48;;;;;;;0.10;0.10;;;;;;;;;;1033875;28;20032;-22
2023/09/14 02:35:18;;;;;;;40.80;2.45;;;;;;;;;;1034624;28;20026;-22
2023/09/14 02:35:50;;;;;;;0.73;0.70;;;;;;;;;;1033650;28;21281;-21
2023/09/14 02:36:22;;;;;;;1.52;1.15;;;;;;;;;;1032807;28;20460;-21
2023/09/14 02:36:54;;;;;;;3.33;1.08;;;;;;;;;;1030027;28;20022;-21
2023/09/14 02:37:24;;;;;;;0.75;0.75;;;;;;;;;;1029870;28;20625;-21
2023/09/14 02:37:56;;;;;;;3.53;2.00;;;;;;;;;;1029087;28;20066;-22
2023/09/14 02:38:26;;;;;;;0.30;0.30;;;;;;;;;;1027864;28;20099;-22
2023/09/14 02:38:57;;;;;;;2.17;1.27;;;;;;;;;;1033667;28;20451;-21
2023/09/14 02:39:27;;;;;;;1.92;0.95;;;;;;;;;;1033765;28;20025;-23
2023/09/14 02:39:58;;;;;;;3.20;2.50;;;;;;;;;;1026976;28;20747;-21
2023/09/14 02:40:29;;;;;;;0.52;0.52;;;;;;;;;;1031458;28;20106;-20
2023/09/14 02:41:01;;;;;;;12.43;2.17;;;;;;;;;;1027146;28;20495;-21
2023/09/14 02:41:32;;;;;;;0.73;0.73;;;;;;;;;;1021626;28;20080;-21
2023/09/14 02:42:02;;;;;;;1.33;0.70;;;;;;;;;;1023483;28;20557;-21
2023/09/14 02:42:36;;;;;;;1.35;1.00;;;;;;;;;;1026126;28;20030;-21
2023/09/14 02:43:07;;;;;;;2.15;2.03;;;;;;;;;;1027773;28;20026;-19
2023/09/14 02:43:38;;;;;;;3.40;0.50;;;;;;;;;;1033701;28;20127;-21
2023/09/14 02:44:10;;;;;;;0.52;0.52;;;;;;;;;;1026841;28;20319;-23
2023/09/14 02:44:41;;;;;;;0.82;0.82;;;;;;;;;;1028297;28;20122;-21
2023/09/14 02:45:11;;;;;;;2.70;1.45;;;;;;;;;;1027919;28;20639;-21
2023/09/14 02:45:42;;;;;;;15.80;0.88;;;;;;;;;;1029431;28;20026;-22
2023/09/14 02:46:16;;;;;;;0.43;0.35;;;;;;;;;;1029003;28;20021;-21
2023/09/14 02:46:51;;;;;;;1.10;1.00;;;;;;;;;;1029814;28;20034;-21
2023/09/14 02:47:26;;;;;;;1.90;1.27;;;;;;;;;;1026054;28;20487;-22
2023/09/14 02:47:57;;;;;;;1.25;0.40;;;;;;;;;;1026675;28;20594;-21
2023/09/14 02:48:29;;;;;;;1.02;0.82;;;;;;;;;;1027431;28;20797;-21
2023/09/14 02:48:59;;;;;;;8.20;3.03;;;;;;;;;;1024186;28;20097;-22
2023/09/14 02:49:30;;;;;;;2.45;1.23;;;;;;;;;;1028803;28;20462;-22
2023/09/14 02:50:00;;;;;;;0.82;0.82;;;;;;;;;;1026730;28;20426;-22
2023/09/14 02:50:31;;;;;;;2.63;0.95;;;;;;;;;;1027747;28;20030;-21
2023/09/14 02:51:03;;;;;;;1.40;0.93;;;;;;;;;;1033167;28;20465;-21
2023/09/14 02:51:37;;;;;;;0.20;0.20;;;;;;;;;;1025389;28;20749;-21
2023/09/14 02:52:10;;;;;;;1.17;1.15;;;;;;;;;;1024491;28;20054;-21
2023/09/14 02:52:41;;;;;;;2.00;1.63;;;;;;;;;;1024402;28;20146;-22
2023/09/14 02:53:12;;;;;;;1.75;1.63;;;;;;;;;;1024536;28;20062;-22
2023/09/14 02:53:46;;;;;;;27.98;3.20;;;;;;;;;;1028443;28;20027;-21
2023/09/14 02:54:19;;;;;;;0.82;0.82;;;;;;;;;;1027862;28;20407;-21
2023/09/14 02:54:52;;;;;;;2.63;2.30;;;;;;;;;;1029231;28;20050;-21
2023/09/14 02:55:23;;;;;;;1.90;0.85;;;;;;;;;;1027055;28;20312;-20
2023/09/14 02:55:55;;;;;;;1.90;1.80;;;;;;;;;;1028921;28;20026;-22
2023/09/14 02:56:26;;;;;;;2.17;1.13;;;;;;;;;;1029467;28;20037;-20
2023/09/14 02:56:57;;;;;;;0.47;0.47;;;;;;;;;;1034500;28;20037;-21
2023/09/14 02:57:28;;;;;;;0.85;0.85;;;;;;;;;;1031798;28;20124;-23
2023/09/14 02:57:58;;;;;;;1.58;1.48;;;;;;;;;;1034124;28;20557;-23
2023/09/14 02:58:29;;;;;;;1.27;1.27;;;;;;;;;;1032471;28;20040;-21
2023/09/14 02:59:02;;;;;;;0.30;0.30;;;;;;;;;;1032677;28;20088;-22
2023/09/14 02:59:36;;;;;;;0.68;0.68;;;;;;;;;;1025674;28;20034;-22
2023/09/14 03:00:16;;;;;;;1.15;0.57;;;;;;;;;;1026466;28;20329;-23
2023/09/14 03:00:49;;;;;;;0.70;0.70;;;;;;;;;;1024712;28;20027;-23
2023/09/14 03:01:23;;;;;;;0.98;0.60;;;;;;;;;;1024869;28;20031;-22
2023/09/14 03:02:02;;;;;;;0.80;0.43;;;;;;;;;;1027704;28;20042;-22
2023/09/14 03:02:45;;;;;;;1.40;0.65;;;;;;;;;;1029598;28;20116;-22
2023/09/14 03:03:21;;;;;;;0.65;0.65;;;;;;;;;;1029887;28;20053;-21
2023/09/14 03:03:52;;;;;;;3.22;2.65;;;;;;;;;;1022563;28;20026;-23
2023/09/14 03:04:22;;;;;;;0.45;0.32;;;;;;;;;;1026998;28;20283;-21
2023/09/14 03:04:53;;;;;;;15.52;3.20;;;;;;;;;;1029309;28;20307;-22
2023/09/14 03:05:26;;;;;;;3.65;1.52;;;;;;;;;;1026957;28;20080;-21
2023/09/14 03:05:57;;;;;;;11.75;1.65;;;;;;;;;;1022704;28;20443;-22
2023/09/14 03:06:29;;;;;;;1.60;1.30;;;;;;;;;;1023297;28;20137;-24
2023/09/14 03:07:00;;;;;;;0.20;0.20;;;;;;;;;;1025522;28;20082;-22
2023/09/14 03:07:31;;;;;;;2.38;2.17;;;;;;;;;;1027556;28;20034;-22
2023/09/14 03:08:03;;;;;;;1.77;0.82;;;;;;;;;;1031133;28;20112;-21
2023/09/14 03:08:36;;;;;;;7.93;1.88;;;;;;;;;;1031194;28;20375;-23
2023/09/14 03:09:07;;;;;;;1.90;0.95;;;;;;;;;;1029836;28;20355;-21
2023/09/14 03:09:38;;;;;;;4.38;1.85;;;;;;;;;;1028418;28;20240;-21
2023/09/14 03:10:09;;;;;;;3.25;1.65;;;;;;;;;;1027215;28;20069;-22